Time;durP1;ratioP1;P1;durP2;ratioP2;P2;SDS_P1;SDS_P2;PMS_P1;PMS_P2;Temp;Humidity;BMP_temperature;BMP_pressure;BME280_temperature;BME280_humidity;BME280_pressure;Samples;Min_cycle;Max_cycle;Signal;HPM_P1;HPM_P2
2023/09/13 00:00:27;;;;;;;4.22;3.40;;;19.90;99.90;;;;;;5067171;28;20032;-50
2023/09/13 00:02:53;;;;;;;8.27;3.42;;;19.80;99.90;;;;;;5069906;28;20017;-54
2023/09/13 00:05:19;;;;;;;5.28;3.38;;;19.80;99.90;;;;;;5071580;28;20040;-53
2023/09/13 00:07:44;;;;;;;5.38;3.60;;;19.70;99.90;;;;;;5073588;28;20029;-53
2023/09/13 00:10:10;;;;;;;2.88;2.60;;;19.70;99.90;;;;;;5075191;28;20036;-44
2023/09/13 00:12:35;;;;;;;6.68;3.20;;;19.70;99.90;;;;;;5074707;28;20059;-43
2023/09/13 00:15:01;;;;;;;7.22;3.60;;;19.80;99.90;;;;;;5076446;28;20237;-52
2023/09/13 00:17:27;;;;;;;5.75;3.28;;;19.80;99.90;;;;;;5070464;28;20040;-53
2023/09/13 00:19:56;;;;;;;4.15;2.75;;;19.90;99.90;;;;;;5070670;28;20443;-53
2023/09/13 00:22:22;;;;;;;4.50;2.78;;;19.90;99.90;;;;;;5074834;28;20081;-48
2023/09/13 00:24:48;;;;;;;3.28;2.78;;;19.90;99.90;;;;;;5075874;28;20111;-51
2023/09/13 00:27:13;;;;;;;8.38;3.15;;;20.00;99.90;;;;;;5073429;28;20051;-51
2023/09/13 00:29:39;;;;;;;3.97;2.75;;;20.00;99.90;;;;;;5068755;28;20040;-53
2023/09/13 00:32:05;;;;;;;5.88;3.50;;;20.00;99.90;;;;;;5073710;28;20114;-53
2023/09/13 00:34:31;;;;;;;4.57;2.97;;;20.00;99.90;;;;;;5070986;28;20028;-55
2023/09/13 00:36:57;;;;;;;7.20;3.28;;;20.00;99.90;;;;;;5073478;28;20029;-52
2023/09/13 00:39:22;;;;;;;4.65;3.38;;;19.90;99.90;;;;;;5070742;28;20373;-44
2023/09/13 00:41:48;;;;;;;5.13;3.10;;;19.90;99.90;;;;;;5074678;28;20025;-47
2023/09/13 00:44:14;;;;;;;7.68;3.53;;;20.00;99.90;;;;;;5067781;28;20016;-42
2023/09/13 00:46:40;;;;;;;4.65;3.47;;;19.90;99.90;;;;;;5073784;28;20115;-45
2023/09/13 00:49:06;;;;;;;3.35;3.05;;;20.00;99.90;;;;;;5075833;28;20072;-46
2023/09/13 00:51:32;;;;;;;4.72;2.95;;;20.10;99.90;;;;;;5075663;28;20511;-45
2023/09/13 00:54:01;;;;;;;4.95;3.83;;;20.00;99.90;;;;;;5069376;28;20703;-45
2023/09/13 00:56:27;;;;;;;5.88;3.35;;;20.00;99.90;;;;;;5067110;28;20364;-49
2023/09/13 00:58:53;;;;;;;3.97;3.10;;;20.00;99.90;;;;;;5069098;28;20029;-44
2023/09/13 01:01:18;;;;;;;3.30;2.55;;;20.00;99.90;;;;;;5065343;28;20477;-50
2023/09/13 01:03:45;;;;;;;9.90;3.70;;;20.00;99.90;;;;;;5070385;28;20527;-53
2023/09/13 01:06:12;;;;;;;6.88;4.15;;;20.00;99.90;;;;;;5073811;28;20473;-51
2023/09/13 01:08:45;;;;;;;5.53;3.88;;;20.00;99.90;;;;;;5072692;28;20063;-51
2023/09/13 01:11:11;;;;;;;5.65;3.95;;;19.90;99.90;;;;;;5071998;28;20060;-50
2023/09/13 01:13:37;;;;;;;5.63;3.83;;;19.80;99.90;;;;;;5072324;28;20095;-52
2023/09/13 01:16:14;;;;;;;8.32;4.70;;;19.80;99.90;;;;;;5073447;28;20108;-44
2023/09/13 01:19:36;;;;;;;9.02;4.10;;;19.80;99.90;;;;;;5072423;28;20079;-41
2023/09/13 01:22:33;;;;;;;7.18;4.50;;;19.70;99.90;;;;;;5013336;28;20061;-41
2023/09/13 01:25:36;;;;;;;7.22;4.43;;;19.70;99.90;;;;;;5071396;28;20036;-43
2023/09/13 01:28:35;;;;;;;6.05;3.45;;;19.70;99.90;;;;;;5075068;28;20097;-43
2023/09/13 01:31:09;;;;;;;5.70;3.65;;;19.70;99.90;;;;;;5066064;28;20043;-42
2023/09/13 01:33:35;;;;;;;4.05;3.42;;;19.80;99.90;;;;;;5074008;28;20361;-43
2023/09/13 01:36:02;;;;;;;10.38;4.32;;;19.80;99.90;;;;;;5074528;28;20040;-42
2023/09/13 01:38:28;;;;;;;6.38;4.07;;;19.80;99.90;;;;;;5074933;28;20032;-43
2023/09/13 01:41:19;;;;;;;6.28;3.90;;;19.80;99.90;;;;;;5075172;28;20051;-44
2023/09/13 01:43:46;;;;;;;7.35;3.90;;;19.70;99.90;;;;;;5074855;28;20044;-43
2023/09/13 01:46:15;;;;;;;3.80;3.47;;;19.70;99.90;;;;;;5074050;28;20527;-45
2023/09/13 01:48:41;;;;;;;8.20;4.25;;;19.70;99.90;;;;;;5073664;28;20477;-42
2023/09/13 01:51:08;;;;;;;5.13;4.05;;;19.70;99.90;;;;;;5074996;28;20400;-45
2023/09/13 01:53:45;;;;;;;4.15;3.42;;;19.70;99.90;;;;;;5074601;28;20028;-46
2023/09/13 01:56:11;;;;;;;;;;;19.70;99.90;;;;;;5073966;28;20036;-42
2023/09/13 01:58:36;;;;;;;6.05;3.55;;;19.80;99.90;;;;;;5074579;28;19908;-53
2023/09/13 02:01:02;;;;;;;6.75;4.72;;;19.80;99.90;;;;;;5074505;28;20028;-53
2023/09/13 02:03:27;;;;;;;7.43;4.40;;;19.80;99.90;;;;;;5072902;28;20141;-51
2023/09/13 02:05:53;;;;;;;7.38;4.18;;;19.80;99.90;;;;;;5074246;28;20134;-51
2023/09/13 02:08:19;;;;;;;4.18;3.60;;;19.80;99.90;;;;;;5074508;28;20028;-53
2023/09/13 02:10:48;;;;;;;5.68;2.92;;;19.80;99.90;;;;;;5073839;28;20032;-53
2023/09/13 02:13:13;;;;;;;4.57;3.10;;;19.80;99.90;;;;;;5074105;28;20032;-53
2023/09/13 02:15:40;;;;;;;5.63;3.90;;;19.80;99.90;;;;;;5074221;28;20025;-53
2023/09/13 02:18:06;;;;;;;4.38;3.63;;;19.80;99.90;;;;;;5073642;28;20085;-50
2023/09/13 02:20:31;;;;;;;5.30;3.60;;;19.80;99.90;;;;;;5072880;28;20039;-50
2023/09/13 02:22:57;;;;;;;4.70;3.80;;;19.80;99.90;;;;;;5073912;28;20380;-53
2023/09/13 02:25:22;;;;;;;4.20;3.75;;;19.80;99.90;;;;;;5073938;28;20058;-53
2023/09/13 02:27:48;;;;;;;6.20;4.53;;;19.80;99.90;;;;;;5074229;28;20048;-52
2023/09/13 02:30:14;;;;;;;7.13;4.30;;;19.80;99.90;;;;;;5074093;28;20035;-53
2023/09/13 02:32:40;;;;;;;4.82;4.13;;;19.80;99.90;;;;;;5073820;28;20078;-52
2023/09/13 02:35:06;;;;;;;5.20;3.93;;;19.70;99.90;;;;;;5071732;28;20029;-43
2023/09/13 02:37:32;;;;;;;5.13;4.10;;;19.70;99.90;;;;;;5072720;28;20091;-41
2023/09/13 02:39:58;;;;;;;6.95;4.90;;;19.80;99.90;;;;;;5073517;28;20054;-42
2023/09/13 02:42:24;;;;;;;5.25;4.15;;;19.70;99.90;;;;;;5071444;28;20008;-45
2023/09/13 02:44:50;;;;;;;5.70;4.05;;;19.70;99.90;;;;;;5073344;28;20486;-43
2023/09/13 02:47:15;;;;;;;8.73;4.47;;;19.70;99.90;;;;;;5073794;28;20027;-41
2023/09/13 02:49:41;;;;;;;6.47;4.13;;;19.70;99.90;;;;;;5071137;28;20027;-43
2023/09/13 02:52:06;;;;;;;6.70;3.58;;;19.70;99.90;;;;;;5073664;28;20021;-44
2023/09/13 02:54:32;;;;;;;6.50;4.35;;;19.70;99.90;;;;;;5071384;28;20029;-43
2023/09/13 02:56:58;;;;;;;5.47;3.88;;;19.70;99.90;;;;;;5072666;28;20499;-44
2023/09/13 02:59:23;;;;;;;4.20;2.90;;;19.70;99.90;;;;;;5053319;28;20067;-44
2023/09/13 03:01:50;;;;;;;8.65;4.55;;;19.60;99.90;;;;;;5053309;28;20033;-45
2023/09/13 03:04:15;;;;;;;4.95;4.05;;;19.60;99.90;;;;;;5055995;28;20036;-46
2023/09/13 03:06:41;;;;;;;5.97;4.20;;;19.60;99.90;;;;;;5073154;28;20390;-41
2023/09/13 03:09:07;;;;;;;7.00;3.80;;;19.60;99.90;;;;;;5073185;28;20499;-45
2023/09/13 03:11:35;;;;;;;6.97;4.03;;;19.60;99.90;;;;;;5072375;28;20056;-45
2023/09/13 03:14:02;;;;;;;8.07;5.32;;;19.60;99.90;;;;;;5072923;28;20063;-41
2023/09/13 03:16:28;;;;;;;6.90;4.68;;;19.60;99.90;;;;;;5073087;28;20030;-43
2023/09/13 03:18:55;;;;;;;6.55;5.05;;;19.50;99.90;;;;;;5073312;28;20021;-45
2023/09/13 03:21:21;;;;;;;8.68;5.70;;;19.50;99.90;;;;;;5071719;28;20048;-43
2023/09/13 03:23:51;;;;;;;6.68;5.07;;;19.50;99.90;;;;;;5072824;28;20040;-51
2023/09/13 03:26:22;;;;;;;7.60;5.53;;;19.50;99.90;;;;;;5071656;28;20078;-53
2023/09/13 03:28:53;;;;;;;10.63;5.28;;;19.50;99.90;;;;;;5072777;28;20033;-53
2023/09/13 03:31:21;;;;;;;10.10;5.18;;;19.50;99.90;;;;;;5085347;28;20032;-53
2023/09/13 03:33:48;;;;;;;8.88;6.13;;;19.40;99.90;;;;;;5070417;28;20037;-53
2023/09/13 03:36:15;;;;;;;11.27;6.78;;;19.40;99.90;;;;;;5068921;28;20040;-53
2023/09/13 03:38:43;;;;;;;11.32;6.57;;;19.40;99.90;;;;;;5073097;28;20477;-53
2023/09/13 03:41:09;;;;;;;;;;;19.40;99.90;;;;;;5070419;28;20070;-51
2023/09/13 03:43:35;;;;;;;13.07;7.50;;;19.30;99.90;;;;;;5072701;28;20006;-53
2023/09/13 03:46:03;;;;;;;11.05;8.07;;;19.30;99.90;;;;;;5070728;28;20317;-53
2023/09/13 03:48:30;;;;;;;12.27;7.80;;;19.40;99.90;;;;;;5069454;28;20039;-48
2023/09/13 03:50:56;;;;;;;20.10;9.43;;;19.30;99.90;;;;;;5070802;28;20060;-52
2023/09/13 03:53:22;;;;;;;16.73;10.30;;;19.30;99.90;;;;;;5072811;28;20543;-53
2023/09/13 03:55:47;;;;;;;13.75;9.35;;;19.30;99.90;;;;;;5072553;28;20049;-53
2023/09/13 03:58:13;;;;;;;16.95;9.82;;;19.30;99.90;;;;;;5069332;28;20025;-53
2023/09/13 04:00:39;;;;;;;20.00;10.93;;;19.30;99.90;;;;;;5068574;28;20031;-53
2023/09/13 04:03:05;;;;;;;19.08;10.32;;;19.30;99.90;;;;;;5072221;28;20483;-53
2023/09/13 04:05:31;;;;;;;18.17;10.27;;;19.30;99.90;;;;;;5070947;28;20031;-50
2023/09/13 04:07:57;;;;;;;16.50;9.85;;;19.30;99.90;;;;;;5070006;28;20036;-52
2023/09/13 04:10:23;;;;;;;17.50;10.73;;;19.30;99.90;;;;;;5061655;28;20469;-53
2023/09/13 04:12:49;;;;;;;20.80;11.85;;;19.30;99.90;;;;;;5068945;28;20086;-46
2023/09/13 04:15:15;;;;;;;19.67;11.32;;;19.30;99.90;;;;;;5066800;28;20107;-53
2023/09/13 04:17:41;;;;;;;28.63;13.27;;;19.30;99.90;;;;;;5072348;28;20035;-49
2023/09/13 04:20:08;;;;;;;22.05;11.18;;;19.30;99.90;;;;;;5071496;28;20025;-53
2023/09/13 04:22:33;;;;;;;23.00;12.00;;;19.30;99.90;;;;;;5072272;28;20481;-53
2023/09/13 04:24:59;;;;;;;25.60;13.50;;;19.30;99.90;;;;;;5071258;28;20033;-52
2023/09/13 04:27:25;;;;;;;24.80;13.52;;;19.30;99.90;;;;;;5070950;28;20039;-53
2023/09/13 04:29:54;;;;;;;23.10;12.15;;;19.20;99.90;;;;;;5070484;28;20143;-52
2023/09/13 04:32:20;;;;;;;24.75;13.43;;;19.20;99.90;;;;;;5072195;28;20065;-50
2023/09/13 04:34:46;;;;;;;23.17;11.68;;;19.20;99.90;;;;;;5069483;28;20553;-53
2023/09/13 04:37:12;;;;;;;24.08;12.18;;;19.20;99.90;;;;;;5072108;28;20036;-53
2023/09/13 04:39:38;;;;;;;23.02;10.80;;;19.20;99.90;;;;;;5071604;28;20368;-53
2023/09/13 04:42:07;;;;;;;23.00;12.70;;;19.20;99.90;;;;;;5071323;28;20104;-51
2023/09/13 04:44:33;;;;;;;26.73;13.90;;;19.20;99.90;;;;;;5070942;28;20039;-52
2023/09/13 04:47:01;;;;;;;27.25;14.43;;;19.20;99.90;;;;;;5052141;28;20025;-53
2023/09/13 04:49:27;;;;;;;28.88;13.73;;;19.10;99.90;;;;;;5068465;28;20028;-53
2023/09/13 04:51:54;;;;;;;22.70;12.20;;;19.10;99.90;;;;;;5072106;28;20108;-52
2023/09/13 04:54:22;;;;;;;25.45;13.70;;;19.10;99.90;;;;;;5074244;28;20489;-53
2023/09/13 04:56:48;;;;;;;30.23;13.32;;;19.10;99.90;;;;;;5075829;28;20095;-53
2023/09/13 04:59:14;;;;;;;26.80;14.13;;;19.10;99.90;;;;;;5074924;28;20028;-47
2023/09/13 05:01:40;;;;;;;27.73;14.38;;;19.10;99.90;;;;;;5074753;28;20082;-52
2023/09/13 05:04:05;;;;;;;28.35;15.02;;;19.10;99.90;;;;;;5075534;28;20025;-53
2023/09/13 05:06:31;;;;;;;34.72;15.88;;;19.10;99.90;;;;;;5074609;28;20108;-53
2023/09/13 05:08:57;;;;;;;28.67;15.10;;;19.10;99.90;;;;;;5074034;28;20473;-53
2023/09/13 05:11:41;;;;;;;31.75;16.10;;;19.10;99.90;;;;;;5074658;28;20020;-52
2023/09/13 05:14:14;;;;;;;37.58;17.50;;;19.10;99.90;;;;;;5071681;28;20060;-45
2023/09/13 05:16:40;;;;;;;31.85;16.80;;;19.10;99.90;;;;;;5073775;28;20066;-50
2023/09/13 05:19:24;;;;;;;39.35;16.92;;;19.10;99.90;;;;;;5072207;28;20059;-43
2023/09/13 05:21:51;;;;;;;40.17;17.55;;;19.10;99.90;;;;;;5067269;28;20063;-44
2023/09/13 05:24:17;;;;;;;35.97;17.15;;;19.10;99.90;;;;;;5066538;28;20051;-53
2023/09/13 05:26:43;;;;;;;41.63;18.60;;;19.10;99.90;;;;;;5070213;28;20029;-52
2023/09/13 05:29:08;;;;;;;42.78;19.02;;;19.10;99.90;;;;;;5073262;28;20037;-52
2023/09/13 05:31:34;;;;;;;44.22;19.02;;;19.00;99.90;;;;;;5072646;28;20037;-54
2023/09/13 05:34:00;;;;;;;14.05;5.00;;;18.90;99.90;;;;;;5070778;28;20431;-52
2023/09/13 05:36:25;;;;;;;9.95;2.15;;;18.40;99.90;;;;;;5068983;28;20044;-54
2023/09/13 05:38:51;;;;;;;3.78;1.38;;;17.90;99.90;;;;;;5074159;28;20036;-52
2023/09/13 05:41:18;;;;;;;2.17;0.85;;;17.60;99.90;;;;;;5073849;28;20027;-53
2023/09/13 05:43:44;;;;;;;0.82;0.60;;;17.40;99.90;;;;;;5055017;28;20029;-52
2023/09/13 05:46:10;;;;;;;1.48;0.85;;;17.30;99.90;;;;;;5059326;28;20013;-53
2023/09/13 05:48:36;;;;;;;2.30;0.93;;;17.20;99.90;;;;;;5073986;28;20024;-53
2023/09/13 05:51:03;;;;;;;1.95;0.40;;;17.20;99.90;;;;;;5073793;28;20039;-51
2023/09/13 05:53:30;;;;;;;1.05;0.30;;;17.10;99.90;;;;;;5073923;28;20500;-52
2023/09/13 05:55:56;;;;;;;1.48;0.50;;;17.00;99.90;;;;;;5074583;28;20533;-53
2023/09/13 05:58:22;;;;;;;1.40;0.50;;;17.00;99.90;;;;;;5073604;28;20025;-50
2023/09/13 06:00:49;;;;;;;1.52;0.45;;;17.00;99.90;;;;;;5073167;28;20492;-52
2023/09/13 06:03:19;;;;;;;4.82;0.88;;;17.00;99.90;;;;;;5073019;28;20020;-52
2023/09/13 06:05:50;;;;;;;2.53;0.50;;;17.00;99.90;;;;;;5073322;28;20017;-53
2023/09/13 06:08:17;;;;;;;2.33;0.50;;;16.80;99.90;;;;;;5070861;28;20025;-53
2023/09/13 06:10:42;;;;;;;3.33;0.60;;;16.80;99.90;;;;;;5073379;28;20025;-49
2023/09/13 06:13:08;;;;;;;2.05;0.77;;;16.80;99.90;;;;;;5073568;28;20021;-53
2023/09/13 06:15:34;;;;;;;2.50;0.57;;;16.70;99.90;;;;;;5074325;28;20102;-53
2023/09/13 06:17:59;;;;;;;3.25;0.60;;;16.70;99.90;;;;;;5073125;28;20508;-54
2023/09/13 06:20:25;;;;;;;1.38;0.40;;;16.50;99.90;;;;;;5073045;28;20024;-53
2023/09/13 06:22:51;;;;;;;0.70;0.70;;;16.50;99.90;;;;;;5073955;28;20481;-53
2023/09/13 06:25:17;;;;;;;0.77;0.40;;;16.50;99.90;;;;;;5074169;28;20021;-54
2023/09/13 06:27:46;;;;;;;1.13;0.75;;;16.50;99.90;;;;;;5073303;28;20016;-50
2023/09/13 06:30:15;;;;;;;2.65;0.70;;;16.50;99.90;;;;;;5073235;28;20058;-53
2023/09/13 06:32:41;;;;;;;1.90;0.55;;;16.50;99.90;;;;;;5073756;28;20540;-53
2023/09/13 06:35:11;;;;;;;2.17;0.77;;;16.60;99.90;;;;;;5073694;28;20268;-53
2023/09/13 06:37:36;;;;;;;3.08;0.65;;;16.50;99.90;;;;;;5071763;28;20068;-53
2023/09/13 06:40:03;;;;;;;1.05;0.75;;;16.50;99.90;;;;;;5073273;28;20048;-53
2023/09/13 06:42:29;;;;;;;4.80;0.88;;;16.40;99.90;;;;;;5072767;28;20116;-54
2023/09/13 06:44:55;;;;;;;3.47;1.08;;;16.30;99.90;;;;;;5070786;28;20116;-53
2023/09/13 06:47:20;;;;;;;1.85;0.88;;;16.40;99.90;;;;;;5073030;28;20134;-53
2023/09/13 06:49:46;;;;;;;1.02;0.63;;;16.30;99.90;;;;;;5073491;28;20123;-53
2023/09/13 06:52:12;;;;;;;1.75;0.50;;;16.30;99.90;;;;;;5070121;28;20425;-51
2023/09/13 06:54:37;;;;;;;6.38;1.10;;;16.20;99.90;;;;;;5068637;28;20484;-53
2023/09/13 06:57:05;;;;;;;1.63;0.88;;;16.20;99.90;;;;;;5073320;28;20033;-54
2023/09/13 06:59:32;;;;;;;2.30;1.33;;;16.10;99.90;;;;;;5072068;28;20082;-54
2023/09/13 07:01:58;;;;;;;1.80;0.88;;;16.20;99.90;;;;;;5072652;28;20017;-53
2023/09/13 07:04:23;;;;;;;3.33;1.25;;;16.10;99.90;;;;;;5071826;28;20040;-53
2023/09/13 07:06:49;;;;;;;2.88;1.02;;;16.20;99.90;;;;;;5072979;28;20020;-52
2023/09/13 07:09:15;;;;;;;1.50;0.82;;;16.20;99.90;;;;;;5070585;28;20085;-54
2023/09/13 07:11:40;;;;;;;4.70;1.30;;;16.20;99.90;;;;;;5072864;28;20028;-55
2023/09/13 07:14:06;;;;;;;2.03;1.20;;;16.30;99.90;;;;;;5072953;28;20038;-54
2023/09/13 07:16:32;;;;;;;1.25;0.80;;;16.40;99.90;;;;;;5080233;28;20055;-52
2023/09/13 07:18:58;;;;;;;3.00;0.70;;;16.40;99.90;;;;;;5093246;28;20020;-52
2023/09/13 07:21:23;;;;;;;4.03;0.90;;;16.40;99.90;;;;;;5077932;28;20644;-54
2023/09/13 07:23:49;;;;;;;4.28;1.10;;;16.60;99.90;;;;;;5071673;28;20622;-54
2023/09/13 07:26:15;;;;;;;1.38;0.82;;;16.70;99.90;;;;;;5064456;28;20060;-52
2023/09/13 07:28:40;;;;;;;2.67;0.90;;;16.70;99.90;;;;;;5070410;28;20036;-51
2023/09/13 07:31:07;;;;;;;0.65;0.60;;;16.70;99.90;;;;;;5070655;28;20060;-54
2023/09/13 07:33:33;;;;;;;2.05;0.70;;;16.70;99.90;;;;;;5070873;28;20032;-53
2023/09/13 07:36:00;;;;;;;5.45;1.08;;;16.70;99.90;;;;;;5070712;28;20409;-52
2023/09/13 07:38:26;;;;;;;1.17;0.82;;;16.70;99.90;;;;;;5072493;28;20087;-53
2023/09/13 07:40:52;;;;;;;1.20;0.60;;;16.70;99.90;;;;;;5073046;28;20060;-53
2023/09/13 07:43:17;;;;;;;2.55;0.90;;;16.80;99.90;;;;;;5069560;28;20028;-51
2023/09/13 07:45:44;;;;;;;1.40;0.63;;;16.90;99.90;;;;;;5069046;28;20428;-54
2023/09/13 07:48:10;;;;;;;3.08;0.93;;;16.90;99.90;;;;;;5067455;28;20033;-54
2023/09/13 07:50:38;;;;;;;0.82;0.70;;;17.10;99.90;;;;;;5068660;28;20465;-54
2023/09/13 07:53:04;;;;;;;1.50;0.63;;;17.30;99.90;;;;;;5070039;28;20020;-53
2023/09/13 07:55:30;;;;;;;2.17;0.65;;;17.30;99.90;;;;;;5067370;28;20021;-54
2023/09/13 07:57:56;;;;;;;1.10;0.65;;;17.20;99.90;;;;;;5068730;28;20490;-54
2023/09/13 08:00:22;;;;;;;2.45;0.70;;;17.10;99.90;;;;;;5067599;28;20108;-54
2023/09/13 08:02:48;;;;;;;7.93;0.95;;;17.30;99.90;;;;;;5067245;28;20040;-54
2023/09/13 08:05:17;;;;;;;4.15;0.68;;;17.40;99.90;;;;;;5070587;28;20425;-53
2023/09/13 08:07:46;;;;;;;6.00;1.60;;;17.50;99.90;;;;;;5070238;28;20032;-54
2023/09/13 08:10:13;;;;;;;2.00;0.88;;;17.60;99.90;;;;;;5070865;28;20041;-52
2023/09/13 08:12:39;;;;;;;1.20;0.98;;;17.70;99.90;;;;;;5070458;28;20059;-43
2023/09/13 08:15:05;;;;;;;2.10;0.80;;;17.90;99.90;;;;;;5071330;28;20485;-43
2023/09/13 08:17:33;;;;;;;5.18;1.45;;;18.20;99.90;;;;;;5071365;28;20067;-44
2023/09/13 08:19:58;;;;;;;1.23;0.70;;;18.40;99.90;;;;;;5072105;28;20025;-44
2023/09/13 08:22:24;;;;;;;5.10;0.90;;;18.60;99.90;;;;;;5071198;28;20024;-45
2023/09/13 08:24:50;;;;;;;2.80;0.85;;;18.60;99.90;;;;;;5065693;28;20024;-45
2023/09/13 08:27:15;;;;;;;1.48;0.80;;;18.60;99.90;;;;;;5071548;28;20020;-42
2023/09/13 08:29:41;;;;;;;1.75;0.90;;;18.60;99.90;;;;;;5072345;28;20102;-42
2023/09/13 08:32:07;;;;;;;2.20;0.73;;;18.60;99.90;;;;;;5069998;28;20020;-52
2023/09/13 08:34:35;;;;;;;3.75;0.70;;;18.60;99.90;;;;;;5074091;28;20117;-54
2023/09/13 08:37:01;;;;;;;3.33;0.90;;;18.50;99.90;;;;;;5073822;28;20040;-53
2023/09/13 08:39:27;;;;;;;5.65;1.30;;;18.50;99.90;;;;;;5075476;28;20104;-53
2023/09/13 08:41:54;;;;;;;3.42;1.33;;;18.70;99.90;;;;;;5073987;28;20021;-53
2023/09/13 08:44:22;;;;;;;4.68;1.25;;;18.70;99.90;;;;;;5073802;28;20039;-54
2023/09/13 08:46:56;;;;;;;3.03;0.98;;;18.70;99.90;;;;;;5074246;28;20556;-51
2023/09/13 08:49:23;;;;;;;2.35;0.63;;;18.70;99.90;;;;;;5071128;28;20044;-54
2023/09/13 08:51:51;;;;;;;0.87;0.73;;;18.60;99.90;;;;;;5073160;28;20035;-53
2023/09/13 08:54:18;;;;;;;2.97;0.82;;;18.60;99.90;;;;;;5070013;28;20378;-53
2023/09/13 08:56:45;;;;;;;1.45;1.15;;;18.60;99.90;;;;;;5054662;28;20025;-51
2023/09/13 08:59:12;;;;;;;1.85;0.57;;;18.60;99.90;;;;;;5073950;28;20013;-52
2023/09/13 09:01:40;;;;;;;4.93;1.00;;;18.60;99.90;;;;;;5073490;28;20021;-53
2023/09/13 09:04:05;;;;;;;3.88;1.50;;;18.60;99.90;;;;;;5081676;28;20036;-53
2023/09/13 09:06:34;;;;;;;0.95;0.55;;;18.60;99.90;;;;;;5095807;28;20437;-53
2023/09/13 09:09:04;;;;;;;2.50;1.63;;;18.50;99.90;;;;;;5081481;28;20485;-53
2023/09/13 09:11:31;;;;;;;2.03;0.95;;;18.50;99.90;;;;;;5073799;28;20057;-50
2023/09/13 09:13:58;;;;;;;;;;;18.60;99.90;;;;;;5073744;28;20061;-53
2023/09/13 09:16:26;;;;;;;4.25;0.85;;;18.60;99.90;;;;;;5074614;28;19931;-52
2023/09/13 09:18:53;;;;;;;3.30;1.33;;;18.60;99.90;;;;;;5075475;28;20027;-50
2023/09/13 09:21:19;;;;;;;;;;;18.60;99.90;;;;;;5074396;28;20033;-54
2023/09/13 09:23:45;;;;;;;3.40;0.98;;;18.70;99.90;;;;;;5072128;28;19916;-50
2023/09/13 09:26:11;;;;;;;4.43;1.20;;;18.80;99.90;;;;;;5073337;28;20401;-53
2023/09/13 09:28:37;;;;;;;3.05;0.77;;;18.80;99.90;;;;;;5072287;28;20070;-53
2023/09/13 09:31:03;;;;;;;3.72;1.73;;;18.80;99.90;;;;;;5069720;28;20427;-55
2023/09/13 09:33:30;;;;;;;1.90;0.90;;;19.00;99.90;;;;;;5072985;28;20485;-54
2023/09/13 09:36:00;;;;;;;1.60;0.95;;;18.90;99.90;;;;;;5072056;28;20401;-54
2023/09/13 09:38:30;;;;;;;5.80;1.23;;;18.90;99.90;;;;;;5073495;28;20060;-51
2023/09/13 09:41:00;;;;;;;5.43;1.25;;;18.90;99.90;;;;;;5075183;28;20389;-55
2023/09/13 09:43:26;;;;;;;4.43;1.02;;;19.10;99.90;;;;;;5070953;28;20074;-53
2023/09/13 09:45:53;;;;;;;2.30;0.70;;;19.30;99.90;;;;;;5071978;28;20034;-54
2023/09/13 09:48:20;;;;;;;1.77;1.33;;;19.40;99.90;;;;;;5059664;28;20025;-52
2023/09/13 09:50:48;;;;;;;3.88;1.20;;;19.60;99.90;;;;;;5072004;28;20550;-54
2023/09/13 09:53:14;;;;;;;3.75;1.33;;;19.70;99.90;;;;;;5057622;28;20021;-53
2023/09/13 09:55:41;;;;;;;1.30;0.90;;;19.70;99.90;;;;;;5069094;28;20040;-53
2023/09/13 09:58:07;;;;;;;3.10;1.45;;;19.40;99.90;;;;;;5074448;28;20048;-54
2023/09/13 10:00:50;;;;;;;4.03;1.88;;;19.30;99.90;;;;;;5073481;28;20490;-52
2023/09/13 10:03:20;;;;;;;2.63;1.10;;;19.30;99.90;;;;;;5073083;28;20028;-53
2023/09/13 10:06:10;;;;;;;8.30;1.50;;;19.20;99.90;;;;;;5073957;28;20371;-54
2023/09/13 10:08:39;;;;;;;2.25;0.73;;;19.20;99.90;;;;;;5074727;28;20038;-53
2023/09/13 10:11:09;;;;;;;1.92;1.05;;;19.20;99.90;;;;;;5073913;28;20036;-54
2023/09/13 10:13:36;;;;;;;2.55;1.00;;;19.20;99.90;;;;;;5074506;28;20063;-44
2023/09/13 10:16:02;;;;;;;7.57;1.23;;;19.30;99.90;;;;;;5073380;28;20028;-52
2023/09/13 10:18:31;;;;;;;2.53;1.02;;;19.10;99.90;;;;;;5074274;28;20377;-54
2023/09/13 10:20:58;;;;;;;6.63;1.23;;;19.20;99.90;;;;;;5074010;28;20021;-49
2023/09/13 10:23:36;;;;;;;5.13;2.35;;;19.40;99.90;;;;;;5065215;28;20021;-52
2023/09/13 10:26:05;;;;;;;5.50;1.10;;;19.40;99.90;;;;;;5052611;28;20037;-51
2023/09/13 10:28:35;;;;;;;4.93;1.55;;;19.70;99.90;;;;;;5053947;28;20485;-53
2023/09/13 10:31:03;;;;;;;0.95;0.70;;;19.70;99.90;;;;;;5053956;28;20048;-53
2023/09/13 10:33:34;;;;;;;5.10;1.05;;;19.50;99.90;;;;;;5070261;28;20036;-53
2023/09/13 10:36:02;;;;;;;1.00;0.80;;;19.60;99.90;;;;;;5069924;28;20017;-52
2023/09/13 10:38:56;;;;;;;0.95;0.70;;;19.50;99.90;;;;;;5069352;28;20028;-49
2023/09/13 10:41:23;;;;;;;4.65;0.90;;;19.30;99.90;;;;;;5059170;28;20028;-51
2023/09/13 10:43:49;;;;;;;1.58;1.05;;;19.40;99.90;;;;;;5071045;28;20036;-53
2023/09/13 10:46:16;;;;;;;1.92;0.93;;;19.40;99.90;;;;;;5070197;28;20028;-53
2023/09/13 10:48:45;;;;;;;2.53;0.98;;;19.40;99.90;;;;;;5071315;28;20085;-54
2023/09/13 10:51:12;;;;;;;3.17;0.68;;;19.30;99.90;;;;;;5067291;28;20029;-50
2023/09/13 10:53:39;;;;;;;7.43;1.38;;;19.20;99.90;;;;;;5072609;28;20077;-42
2023/09/13 10:56:05;;;;;;;7.10;1.30;;;18.80;99.90;;;;;;5069523;28;20566;-42
2023/09/13 10:58:31;;;;;;;2.35;1.08;;;18.30;99.90;;;;;;5072574;28;20445;-47
2023/09/13 11:00:58;;;;;;;3.08;0.85;;;17.90;99.90;;;;;;5069416;28;20104;-43
2023/09/13 11:03:24;;;;;;;3.08;1.10;;;17.80;99.90;;;;;;5072970;28;20099;-45
2023/09/13 11:05:55;;;;;;;8.15;1.40;;;17.50;99.90;;;;;;5071567;28;20028;-44
2023/09/13 11:08:29;;;;;;;9.68;2.42;;;17.40;99.90;;;;;;5083861;28;20052;-43
2023/09/13 11:10:55;;;;;;;7.45;1.70;;;17.40;99.90;;;;;;5051850;28;20025;-44
2023/09/13 11:13:30;;;;;;;5.68;1.95;;;17.40;99.90;;;;;;5069154;28;20025;-45
2023/09/13 11:16:01;;;;;;;3.33;1.33;;;17.40;99.90;;;;;;5073302;28;20504;-42
2023/09/13 11:18:27;;;;;;;9.77;1.42;;;17.50;99.90;;;;;;5073302;28;20385;-43
2023/09/13 11:20:53;;;;;;;15.27;1.83;;;17.50;99.90;;;;;;5070649;28;20096;-44
2023/09/13 11:23:19;;;;;;;3.08;1.10;;;17.50;99.90;;;;;;5069338;28;20030;-48
2023/09/13 11:25:53;;;;;;;3.58;1.15;;;17.60;99.90;;;;;;5072327;28;20024;-46
2023/09/13 11:28:37;;;;;;;5.35;1.77;;;17.60;99.90;;;;;;5070644;28;20033;-48
2023/09/13 11:31:04;;;;;;;12.05;3.08;;;17.70;99.90;;;;;;5068302;28;20039;-45
2023/09/13 11:33:31;;;;;;;6.38;1.20;;;17.80;99.90;;;;;;5070930;28;20075;-43
2023/09/13 11:35:58;;;;;;;2.00;1.27;;;18.00;99.90;;;;;;5070771;28;20036;-44
2023/09/13 11:38:25;;;;;;;3.22;1.10;;;18.10;99.90;;;;;;5072527;28;20279;-42
2023/09/13 11:40:57;;;;;;;5.50;1.77;;;18.20;99.90;;;;;;5070372;28;20024;-44
2023/09/13 11:43:27;;;;;;;3.75;1.40;;;18.30;99.90;;;;;;5071183;28;20060;-43
2023/09/13 11:45:57;;;;;;;4.82;1.58;;;18.40;99.90;;;;;;5069816;28;20085;-44
2023/09/13 11:48:26;;;;;;;2.60;1.73;;;18.40;99.90;;;;;;5070004;28;20033;-47
2023/09/13 11:50:52;;;;;;;3.25;1.65;;;18.50;99.90;;;;;;5067641;28;20039;-44
2023/09/13 11:53:25;;;;;;;3.53;1.67;;;18.50;99.90;;;;;;5069555;28;20078;-43
2023/09/13 11:55:55;;;;;;;2.60;1.45;;;18.60;99.90;;;;;;5071453;28;20037;-43
2023/09/13 11:58:39;;;;;;;3.33;1.85;;;18.80;99.90;;;;;;5070100;28;20017;-43
2023/09/13 12:01:06;;;;;;;3.40;1.73;;;19.10;99.90;;;;;;5070731;28;20535;-43
2023/09/13 12:03:36;;;;;;;1.80;1.63;;;19.50;99.90;;;;;;5072996;28;20422;-45
2023/09/13 12:06:03;;;;;;;5.95;1.60;;;19.70;99.90;;;;;;5073165;28;20281;-44
2023/09/13 12:08:30;;;;;;;2.78;1.90;;;19.60;99.90;;;;;;5075688;28;20036;-43
2023/09/13 12:10:57;;;;;;;5.60;2.45;;;19.60;99.90;;;;;;5074986;28;20484;-42
2023/09/13 12:13:49;;;;;;;5.05;1.65;;;19.70;99.90;;;;;;5073581;28;20052;-44
2023/09/13 12:16:16;;;;;;;4.15;1.75;;;20.00;99.90;;;;;;5067711;28;20059;-53
2023/09/13 12:18:43;;;;;;;3.17;1.60;;;20.30;99.90;;;;;;5075725;28;20058;-53
2023/09/13 12:21:10;;;;;;;4.50;2.10;;;20.40;99.90;;;;;;5071076;28;20289;-54
2023/09/13 12:23:46;;;;;;;3.90;2.10;;;20.50;99.90;;;;;;5065139;28;20600;-52
2023/09/13 12:26:14;;;;;;;5.65;2.10;;;20.60;99.90;;;;;;5075394;28;20032;-53
2023/09/13 12:28:40;;;;;;;6.85;2.60;;;20.70;99.90;;;;;;5066076;28;20035;-51
2023/09/13 12:31:12;;;;;;;5.68;2.35;;;21.00;99.90;;;;;;5055923;28;20033;-53
2023/09/13 12:33:42;;;;;;;2.92;2.08;;;20.90;99.90;;;;;;5056357;28;20032;-51
2023/09/13 12:36:09;;;;;;;4.53;2.00;;;20.80;99.90;;;;;;5075682;28;20025;-53
2023/09/13 12:38:44;;;;;;;4.22;2.33;;;20.70;99.90;;;;;;5074643;28;20524;-54
2023/09/13 12:41:11;;;;;;;3.38;1.58;;;20.40;99.90;;;;;;5076212;28;20060;-49
2023/09/13 12:43:42;;;;;;;4.88;2.08;;;20.30;99.90;;;;;;5075905;28;20025;-54
2023/09/13 12:46:12;;;;;;;4.45;1.88;;;20.40;99.90;;;;;;5075949;28;20067;-54
2023/09/13 12:48:38;;;;;;;5.43;2.38;;;20.70;99.90;;;;;;5076129;28;20107;-53